Time;durP1;ratioP1;P1;durP2;ratioP2;P2;SDS_P1;SDS_P2;PMS_P1;PMS_P2;Temp;Humidity;BMP_temperature;BMP_pressure;BME280_temperature;BME280_humidity;BME280_pressure;Samples;Min_cycle;Max_cycle;Signal;HPM_P1;HPM_P2
2023/12/06 00:00:00;;;;;;;53.87;25.60;;;;;;;7.45;91.94;99433.81;5070795;28;20653;-75
2023/12/06 00:02:27;;;;;;;38.93;23.13;;;;;;;7.49;91.65;99440.41;5070868;28;20188;-75
2023/12/06 00:04:53;;;;;;;50.97;25.17;;;;;;;7.54;91.11;99432.75;5071243;28;20226;-75
2023/12/06 00:07:20;;;;;;;41.30;24.30;;;;;;;7.58;90.98;99428.75;5070968;28;20260;-75
2023/12/06 00:09:48;;;;;;;45.70;24.93;;;;;;;7.60;90.33;99424.94;5070925;28;20413;-75
2023/12/06 00:12:15;;;;;;;49.37;25.07;;;;;;;7.63;90.44;99421.13;5070905;28;20664;-75
2023/12/06 00:14:41;;;;;;;40.20;23.53;;;;;;;7.68;90.45;99426.69;5071105;28;20284;-75
2023/12/06 00:17:08;;;;;;;43.53;23.87;;;;;;;7.67;89.83;99417.94;5071032;28;20682;-75
2023/12/06 00:19:35;;;;;;;46.13;24.13;;;;;;;7.73;90.05;99433.09;5070969;28;20200;-76
2023/12/06 00:22:01;;;;;;;40.97;23.67;;;;;;;7.73;89.08;99424.31;5071137;28;20287;-76
2023/12/06 00:24:28;;;;;;;45.50;24.83;;;;;;;7.71;88.40;99418.38;5071263;28;20653;-76
2023/12/06 00:26:56;;;;;;;37.20;23.53;;;;;;;7.60;88.32;99411.72;5071796;28;20249;-76
2023/12/06 00:29:23;;;;;;;49.10;25.23;;;;;;;7.63;89.42;99415.84;5074472;28;20192;-76
2023/12/06 00:31:50;;;;;;;42.03;23.37;;;;;;;7.65;89.72;99419.13;5074554;28;20195;-75
2023/12/06 00:34:16;;;;;;;46.50;25.57;;;;;;;7.64;90.08;99417.47;5074590;28;20215;-74
2023/12/06 00:36:43;;;;;;;49.63;24.90;;;;;;;7.58;89.79;99419.00;5063581;28;20246;-75
2023/12/06 00:39:13;;;;;;;52.10;26.03;;;;;;;7.55;89.71;99413.28;5054670;28;20318;-74
2023/12/06 00:41:40;;;;;;;50.10;25.97;;;;;;;7.54;90.44;99412.44;5054476;28;20181;-73
2023/12/06 00:44:08;;;;;;;50.60;25.03;;;;;;;7.56;89.85;99414.91;5070883;28;20207;-75
2023/12/06 00:46:35;;;;;;;51.93;28.40;;;;;;;7.55;90.23;99403.50;5073112;28;20222;-74
2023/12/06 00:49:03;;;;;;;54.23;28.10;;;;;;;7.48;90.35;99399.91;5073833;28;20191;-74
2023/12/06 00:51:30;;;;;;;54.00;29.43;;;;;;;7.51;91.06;99399.56;5074036;28;20188;-75
2023/12/06 00:53:56;;;;;;;53.10;29.90;;;;;;;7.58;90.15;99397.03;5073579;28;20703;-74
2023/12/06 00:56:23;;;;;;;61.70;31.87;;;;;;;7.57;91.72;99400.69;5073908;28;20253;-74
2023/12/06 00:58:50;;;;;;;61.87;31.57;;;;;;;7.60;91.07;99395.84;5074674;28;20207;-75
2023/12/06 01:01:18;;;;;;;60.43;32.17;;;;;;;7.64;91.90;99396.34;5074045;28;20245;-75
2023/12/06 01:03:44;;;;;;;64.27;32.83;;;;;;;7.70;92.07;99390.31;5074743;28;20196;-76
2023/12/06 01:06:11;;;;;;;67.10;34.07;;;;;;;7.61;90.88;99391.41;5074127;28;20191;-75
2023/12/06 01:08:38;;;;;;;68.07;33.27;;;;;;;7.63;91.56;99384.13;5074074;28;20199;-74
2023/12/06 01:11:05;;;;;;;64.63;34.97;;;;;;;7.67;91.60;99390.69;5073640;28;20673;-74
2023/12/06 01:13:32;;;;;;;62.73;34.77;;;;;;;7.70;91.72;99396.44;5073660;28;20293;-74
2023/12/06 01:15:59;;;;;;;71.73;34.37;;;;;;;7.68;91.88;99387.03;5073867;28;20188;-74
2023/12/06 01:18:27;;;;;;;73.77;36.93;;;;;;;7.72;91.41;99377.75;5073889;28;20192;-74
2023/12/06 01:20:53;;;;;;;76.77;37.07;;;;;;;7.75;91.61;99382.66;5073834;28;20542;-74
2023/12/06 01:23:20;;;;;;;71.83;36.33;;;;;;;7.63;90.84;99368.28;5073377;28;20212;-73
2023/12/06 01:25:47;;;;;;;72.60;34.77;;;;;;;7.63;90.69;99368.28;5073396;28;20717;-73
2023/12/06 01:28:13;;;;;;;63.67;34.60;;;;;;;7.68;91.12;99364.06;5072760;28;20200;-73
2023/12/06 01:30:40;;;;;;;67.17;33.03;;;;;;;7.75;91.29;99361.50;5072336;28;20223;-74
2023/12/06 01:33:07;;;;;;;71.43;31.83;;;;;;;7.76;90.97;99361.34;5072834;28;20204;-74
2023/12/06 01:35:35;;;;;;;61.50;32.10;;;;;;;7.78;91.36;99358.50;5072708;28;20622;-74
2023/12/06 01:38:02;;;;;;;62.13;31.63;;;;;;;7.77;91.17;99364.81;5072887;28;20543;-73
2023/12/06 01:40:28;;;;;;;59.97;30.67;;;;;;;7.72;90.94;99356.59;5072997;28;20269;-73
2023/12/06 01:42:55;;;;;;;62.73;32.03;;;;;;;7.73;90.27;99358.25;5073407;28;20268;-72
2023/12/06 01:45:22;;;;;;;65.33;31.13;;;;;;;7.71;91.26;99352.28;5073272;28;20192;-72
2023/12/06 01:47:51;;;;;;;53.13;29.57;;;;;;;7.69;90.84;99341.09;5073033;28;20256;-73
2023/12/06 01:50:18;;;;;;;63.60;31.30;;;;;;;7.66;91.14;99333.53;5073357;28;20198;-73
2023/12/06 01:52:46;;;;;;;64.20;32.93;;;;;;;7.59;90.60;99329.97;5073101;28;20233;-73
2023/12/06 01:55:14;;;;;;;59.87;31.43;;;;;;;7.53;90.40;99325.41;5072910;28;20649;-73
2023/12/06 01:57:43;;;;;;;59.27;31.23;;;;;;;7.43;90.80;99314.28;5072850;28;20605;-73
2023/12/06 02:00:10;;;;;;;63.77;32.20;;;;;;;7.48;91.55;99322.50;5073054;28;20199;-74
2023/12/06 02:02:37;;;;;;;61.40;32.93;;;;;;;7.48;92.65;99311.91;5072673;28;20271;-74
2023/12/06 02:05:04;;;;;;;62.80;31.43;;;;;;;7.48;92.29;99298.72;5072918;28;20214;-75
2023/12/06 02:07:33;;;;;;;66.33;32.37;;;;;;;7.52;92.85;99302.63;5072989;28;20199;-76
2023/12/06 02:10:02;;;;;;;62.20;32.77;;;;;;;7.53;92.35;99294.53;5072807;28;20203;-76
2023/12/06 02:12:29;;;;;;;70.17;31.93;;;;;;;7.59;92.65;99291.13;5072765;28;20202;-75
2023/12/06 02:14:57;;;;;;;64.73;33.37;;;;;;;7.55;91.36;99291.72;5072366;28;20215;-75
2023/12/06 02:17:24;;;;;;;65.07;33.83;;;;;;;7.52;90.95;99292.06;5072905;28;20195;-75
2023/12/06 02:19:51;;;;;;;64.43;31.20;;;;;;;7.58;91.47;99300.06;5072374;28;20196;-75
2023/12/06 02:22:18;;;;;;;67.50;34.23;;;;;;;7.57;92.06;99298.44;5072525;28;20196;-75
2023/12/06 02:24:48;;;;;;;65.20;33.37;;;;;;;7.53;91.38;99304.25;5072766;28;20258;-76
2023/12/06 02:27:16;;;;;;;71.00;34.53;;;;;;;7.48;92.51;99307.44;5072427;28;20192;-75
2023/12/06 02:29:43;;;;;;;70.33;33.00;;;;;;;7.49;92.71;99300.34;5072227;28;20277;-73
2023/12/06 02:32:09;;;;;;;65.73;32.30;;;;;;;7.47;92.39;99300.53;5072339;28;20616;-74
2023/12/06 02:34:38;;;;;;;62.73;32.13;;;;;;;7.45;92.28;99296.41;5072289;28;20241;-74
2023/12/06 02:37:08;;;;;;;66.20;33.37;;;;;;;7.48;92.14;99298.72;5071912;28;20252;-74
2023/12/06 02:39:38;;;;;;;69.80;32.30;;;;;;;7.48;92.74;99302.16;5071977;28;20202;-74
2023/12/06 02:42:05;;;;;;;70.30;32.93;;;;;;;7.46;92.74;99298.06;5071922;28;20663;-74
2023/12/06 02:44:33;;;;;;;64.00;34.67;;;;;;;7.42;93.82;99296.78;5072224;28;20196;-74
2023/12/06 02:47:00;;;;;;;65.27;33.97;;;;;;;7.38;93.69;99290.22;5072227;28;20187;-73
2023/12/06 02:49:27;;;;;;;66.27;32.83;;;;;;;7.36;94.13;99294.88;5071572;28;20195;-74
2023/12/06 02:51:54;;;;;;;73.67;34.10;;;;;;;7.37;94.57;99293.84;5071933;28;20268;-73
2023/12/06 02:54:21;;;;;;;69.90;36.03;;;;;;;7.32;93.91;99296.22;5071478;28;20356;-73
2023/12/06 02:56:48;;;;;;;79.13;35.03;;;;;;;7.26;94.87;99291.69;5071967;28;20200;-73
2023/12/06 02:59:14;;;;;;;73.50;35.73;;;;;;;7.18;95.33;99282.00;5071786;28;20191;-74
2023/12/06 03:01:47;;;;;;;82.47;35.00;;;;;;;7.13;95.31;99286.16;5071972;28;20191;-74
2023/12/06 03:04:14;;;;;;;73.13;36.50;;;;;;;7.17;96.18;99282.16;5071937;28;20223;-74
2023/12/06 03:06:41;;;;;;;77.00;36.93;;;;;;;7.17;95.86;99282.16;5071450;28;20249;-74
2023/12/06 03:09:08;;;;;;;71.73;34.70;;;;;;;7.11;95.39;99286.34;5071739;28;20253;-74
2023/12/06 03:11:34;;;;;;;82.53;36.40;;;;;;;6.92;95.87;99278.94;5071855;28;20202;-74
2023/12/06 03:14:01;;;;;;;75.67;35.33;;;;;;;6.85;96.80;99285.91;5071388;28;20691;-74
2023/12/06 03:16:28;;;;;;;83.63;36.30;;;;;;;6.81;96.68;99283.81;5071596;28;20223;-74
2023/12/06 03:18:56;;;;;;;81.87;37.47;;;;;;;6.72;96.99;99277.78;5071646;28;20241;-74
2023/12/06 03:21:23;;;;;;;75.70;35.83;;;;;;;6.65;97.79;99276.03;5071232;28;20689;-75
2023/12/06 03:23:50;;;;;;;81.73;36.33;;;;;;;6.61;99.42;99278.19;5071811;28;20292;-75
2023/12/06 03:26:16;;;;;;;89.97;37.00;;;;;;;6.61;99.90;99275.53;5071255;28;20192;-75
2023/12/06 03:28:43;;;;;;;89.17;39.17;;;;;;;6.61;99.55;99275.53;5071327;28;20208;-75
2023/12/06 03:31:10;;;;;;;88.80;37.87;;;;;;;6.59;99.48;99280.19;5071396;28;20230;-74
2023/12/06 03:33:37;;;;;;;91.93;37.23;;;;;;;6.45;100.00;99264.28;5071122;28;20194;-74
2023/12/06 03:36:05;;;;;;;92.17;37.13;;;;;;;6.51;100.00;99279.41;5071342;28;20253;-74
2023/12/06 03:38:32;;;;;;;89.43;36.47;;;;;;;6.41;100.00;99277.00;5071306;28;20257;-74
2023/12/06 03:41:01;;;;;;;98.57;37.70;;;;;;;6.36;100.00;99289.09;5070936;28;20668;-75
2023/12/06 03:43:28;;;;;;;92.93;38.60;;;;;;;6.40;100.00;99274.56;5070941;28;20192;-74
2023/12/06 03:45:55;;;;;;;93.30;40.63;;;;;;;6.42;100.00;99277.81;5071145;28;20643;-74
2023/12/06 03:48:21;;;;;;;102.47;40.87;;;;;;;6.40;100.00;99271.91;5071053;28;20244;-75
2023/12/06 03:50:48;;;;;;;96.93;40.10;;;;;;;6.36;100.00;99270.63;5071435;28;20292;-75
2023/12/06 03:53:16;;;;;;;92.57;40.20;;;;;;;6.44;100.00;99273.19;5071015;28;20639;-75
2023/12/06 03:55:43;;;;;;;106.03;40.53;;;;;;;6.38;100.00;99268.63;5071061;28;20757;-74
2023/12/06 03:58:10;;;;;;;94.53;40.63;;;;;;;6.42;100.00;99270.75;5071265;28;20241;-75
2023/12/06 04:00:38;;;;;;;95.40;39.30;;;;;;;6.45;100.00;99278.28;5071451;28;20194;-74
2023/12/06 04:03:07;;;;;;;101.07;41.23;;;;;;;6.44;100.00;99278.47;5075329;28;20191;-75
2023/12/06 04:05:34;;;;;;;97.57;41.40;;;;;;;6.38;100.00;99265.97;5074984;28;20232;-74
2023/12/06 04:08:01;;;;;;;99.07;41.57;;;;;;;6.36;100.00;99265.34;5075171;28;20192;-74
2023/12/06 04:10:29;;;;;;;93.93;41.57;;;;;;;6.35;100.00;99268.97;5075180;28;20202;-74
2023/12/06 04:12:56;;;;;;;96.43;40.20;;;;;;;6.39;100.00;99264.97;5075322;28;20204;-74
2023/12/06 04:15:23;;;;;;;90.83;38.33;;;;;;;6.42;100.00;99264.63;5074996;28;20227;-74
2023/12/06 04:17:49;;;;;;;95.30;40.00;;;;;;;6.39;100.00;99271.09;5075000;28;20194;-74
2023/12/06 04:20:17;;;;;;;92.03;38.50;;;;;;;6.34;100.00;99267.31;5074734;28;20568;-74
2023/12/06 04:22:44;;;;;;;95.23;38.57;;;;;;;6.27;100.00;99255.81;5075071;28;20284;-74
2023/12/06 04:25:14;;;;;;;92.10;38.20;;;;;;;6.22;100.00;99259.00;5074926;28;20195;-74
2023/12/06 04:27:43;;;;;;;92.90;38.10;;;;;;;6.30;100.00;99255.47;5074512;28;20224;-75
2023/12/06 04:30:10;;;;;;;91.60;39.17;;;;;;;6.40;100.00;99261.38;5074474;28;20237;-75
2023/12/06 04:32:37;;;;;;;86.90;40.30;;;;;;;6.42;100.00;99259.34;5074243;28;20763;-75
2023/12/06 04:35:05;;;;;;;91.53;38.10;;;;;;;6.35;100.00;99258.41;5074671;28;20219;-74
2023/12/06 04:37:32;;;;;;;95.53;38.97;;;;;;;6.32;100.00;99248.22;5074280;28;20274;-74
2023/12/06 04:40:00;;;;;;;99.93;41.90;;;;;;;6.35;100.00;99253.13;5074827;28;20200;-75
2023/12/06 04:42:26;;;;;;;95.07;40.13;;;;;;;6.39;100.00;99251.78;5074466;28;20204;-74
2023/12/06 04:44:55;;;;;;;89.67;38.63;;;;;;;6.36;100.00;99245.06;5074211;28;20235;-75
2023/12/06 04:47:21;;;;;;;100.37;40.53;;;;;;;6.40;100.00;99245.53;5074300;28;20249;-75
2023/12/06 04:49:48;;;;;;;94.47;39.53;;;;;;;6.33;100.00;99244.59;5074350;28;20663;-74
2023/12/06 04:52:15;;;;;;;97.57;40.87;;;;;;;6.32;100.00;99243.75;5074174;28;20253;-75
2023/12/06 04:54:41;;;;;;;102.33;40.13;;;;;;;6.32;100.00;99240.31;5074081;28;20216;-74
2023/12/06 04:57:08;;;;;;;93.00;41.20;;;;;;;6.31;100.00;99241.28;5073630;28;20335;-74
2023/12/06 04:59:35;;;;;;;96.60;41.90;;;;;;;6.34;100.00;99246.22;5073455;28;20574;-74
2023/12/06 05:02:03;;;;;;;96.53;41.20;;;;;;;6.45;100.00;99237.91;5073665;28;20195;-74
2023/12/06 05:04:30;;;;;;;101.37;38.80;;;;;;;6.53;100.00;99246.56;5073929;28;20253;-75
2023/12/06 05:06:57;;;;;;;106.30;41.60;;;;;;;6.38;100.00;99210.59;5073539;28;20217;-75
2023/12/06 05:09:24;;;;;;;100.30;38.77;;;;;;;6.51;100.00;99243.31;5072839;28;20191;-74
2023/12/06 05:11:51;;;;;;;95.63;38.80;;;;;;;6.46;100.00;99234.28;5073308;28;20245;-74
2023/12/06 05:14:18;;;;;;;96.17;39.90;;;;;;;6.45;100.00;99243.19;5072748;28;20190;-74
2023/12/06 05:16:45;;;;;;;95.80;40.70;;;;;;;6.50;100.00;99243.47;5073098;28;20262;-73
2023/12/06 05:19:13;;;;;;;132.57;49.07;;;;;;;6.52;100.00;99239.66;5076498;28;20192;-74
2023/12/06 05:21:39;;;;;;;102.13;40.83;;;;;;;6.43;100.00;99238.09;5072685;28;20196;-76
2023/12/06 05:24:07;;;;;;;104.80;42.60;;;;;;;6.31;100.00;99243.94;5073046;28;20253;-75
2023/12/06 05:26:34;;;;;;;121.97;47.20;;;;;;;6.27;100.00;99237.38;5062897;28;20189;-74
2023/12/06 05:29:00;;;;;;;99.23;40.40;;;;;;;6.23;100.00;99241.34;5063011;28;20197;-75
2023/12/06 05:31:27;;;;;;;100.03;40.17;;;;;;;6.24;100.00;99245.66;5061302;28;20220;-75
2023/12/06 05:33:54;;;;;;;108.30;41.73;;;;;;;6.29;100.00;99245.94;5063256;28;20208;-75
2023/12/06 05:36:22;;;;;;;99.73;41.77;;;;;;;6.28;100.00;99247.75;5073442;28;20648;-76
2023/12/06 05:38:49;;;;;;;107.93;38.60;;;;;;;6.25;100.00;99242.81;5072541;28;20701;-76
2023/12/06 05:41:15;;;;;;;97.03;38.77;;;;;;;6.30;100.00;99239.66;5062673;28;20598;-73
2023/12/06 05:43:42;;;;;;;111.53;40.17;;;;;;;6.36;100.00;99244.25;5071062;28;20192;-73
2023/12/06 05:46:09;;;;;;;113.17;44.27;;;;;;;6.46;100.00;99234.28;5061151;28;20197;-75
2023/12/06 05:48:35;;;;;;;107.57;42.13;;;;;;;6.53;100.00;99240.50;5062701;28;20192;-77
2023/12/06 05:51:02;;;;;;;115.83;40.93;;;;;;;6.58;100.00;99243.41;5062778;28;20197;-77
2023/12/06 05:53:31;;;;;;;123.43;43.63;;;;;;;6.53;100.00;99237.84;5071753;28;20661;-77
2023/12/06 05:55:57;;;;;;;121.30;44.03;;;;;;;6.72;100.00;99253.19;5070035;28;20680;-77
2023/12/06 05:58:24;;;;;;;111.30;41.90;;;;;;;6.82;100.00;99251.94;5072375;28;20194;-77
2023/12/06 06:00:52;;;;;;;119.10;43.73;;;;;;;6.86;100.00;99241.88;5069604;28;20196;-74
2023/12/06 06:03:19;;;;;;;124.63;42.07;;;;;;;6.84;100.00;99246.50;5071787;28;20303;-75
2023/12/06 06:05:46;;;;;;;118.40;43.93;;;;;;;6.79;100.00;99251.50;5071801;28;20684;-77
2023/12/06 06:08:12;;;;;;;127.80;45.57;;;;;;;6.75;100.00;99250.22;5071761;28;20325;-78
2023/12/06 06:10:40;;;;;;;126.80;44.57;;;;;;;6.66;100.00;99246.00;5071210;28;20243;-73
2023/12/06 06:13:07;;;;;;;136.80;49.33;;;;;;;6.59;100.00;99250.34;5071465;28;20187;-75
2023/12/06 06:15:34;;;;;;;129.50;45.90;;;;;;;6.61;100.00;99254.44;5071721;28;20597;-74
2023/12/06 06:18:00;;;;;;;129.97;46.63;;;;;;;6.61;100.00;99261.53;5071611;28;20373;-73
2023/12/06 06:20:27;;;;;;;118.87;43.40;;;;;;;6.63;100.00;99256.91;5060527;28;20622;-74
2023/12/06 06:22:54;;;;;;;124.80;46.27;;;;;;;6.64;100.00;99258.53;5066172;28;20203;-73
2023/12/06 06:25:21;;;;;;;120.07;41.70;;;;;;;6.73;100.00;99257.50;5070811;28;20731;-73
2023/12/06 06:27:49;;;;;;;124.10;43.70;;;;;;;6.83;100.00;99255.41;5071544;28;20187;-74
2023/12/06 06:30:17;;;;;;;114.57;44.33;;;;;;;6.95;100.00;99256.63;5074649;28;20229;-71
2023/12/06 06:32:43;;;;;;;120.70;41.97;;;;;;;6.94;100.00;99244.44;5091767;28;20815;-72
2023/12/06 06:35:10;;;;;;;122.07;40.90;;;;;;;7.14;100.00;99250.84;5091606;28;20278;-74
2023/12/06 06:37:37;;;;;;;112.57;44.40;;;;;;;7.27;100.00;99245.75;5072069;28;20202;-69
2023/12/06 06:40:07;;;;;;;130.60;45.13;;;;;;;7.41;100.00;99240.47;5091833;28;20252;-72
2023/12/06 06:42:33;;;;;;;132.03;44.67;;;;;;;7.48;100.00;99237.94;5091701;28;20289;-73
2023/12/06 06:45:02;;;;;;;129.50;45.93;;;;;;;7.46;100.00;99247.84;5091486;28;20205;-73
2023/12/06 06:47:29;;;;;;;111.97;41.93;;;;;;;7.39;100.00;99244.31;5091821;28;20199;-79
2023/12/06 06:49:56;;;;;;;103.80;40.07;;;;;;;7.32;100.00;99227.53;5091851;28;20206;-73
2023/12/06 06:52:23;;;;;;;112.13;45.73;;;;;;;7.37;100.00;99241.03;5076059;28;20211;-73
2023/12/06 06:54:50;;;;;;;115.20;43.40;;;;;;;7.32;100.00;99240.75;5071127;28;20743;-72
2023/12/06 06:57:16;;;;;;;106.97;42.83;;;;;;;7.35;100.00;99243.03;5071415;28;20187;-74
2023/12/06 06:59:43;;;;;;;113.97;43.23;;;;;;;7.29;100.00;99241.09;5071376;28;20200;-73
2023/12/06 07:02:11;;;;;;;121.90;48.17;;;;;;;7.35;100.00;99248.31;5071293;28;20659;-73
2023/12/06 07:04:38;;;;;;;108.07;42.93;;;;;;;7.35;100.00;99248.31;5072077;28;20187;-74
2023/12/06 07:07:05;;;;;;;116.40;45.60;;;;;;;7.29;100.00;99255.16;5071502;28;20191;-73
2023/12/06 07:09:32;;;;;;;106.70;40.53;;;;;;;7.32;100.00;99248.66;5071246;28;20193;-73
2023/12/06 07:11:58;;;;;;;104.63;39.53;;;;;;;7.12;100.00;99226.44;5071642;28;20656;-74
2023/12/06 07:14:25;;;;;;;108.70;38.37;;;;;;;7.24;100.00;99257.50;5074783;28;20255;-75
2023/12/06 07:16:52;;;;;;;103.30;38.77;;;;;;;7.17;100.00;99245.19;5074155;28;20235;-75
2023/12/06 07:19:21;;;;;;;97.33;36.93;;;;;;;7.19;100.00;99259.06;5072113;28;20187;-75
2023/12/06 07:21:48;;;;;;;125.67;42.53;;;;;;;7.13;100.00;99265.03;5070132;28;20553;-75
2023/12/06 07:24:15;;;;;;;105.90;42.10;;;;;;;7.11;100.00;99259.94;5073167;28;20196;-75
2023/12/06 07:26:42;;;;;;;109.20;41.40;;;;;;;7.12;100.00;99255.47;5070895;28;20200;-74
2023/12/06 07:29:09;;;;;;;105.87;42.90;;;;;;;7.18;100.00;99238.94;5070187;28;20223;-71
2023/12/06 07:31:36;;;;;;;100.37;38.77;;;;;;;7.59;100.00;99248.06;5070927;28;20214;-70
2023/12/06 07:34:02;;;;;;;133.17;45.57;;;;;;;7.81;100.00;99236.53;5072292;28;20199;-73
2023/12/06 07:36:31;;;;;;;128.23;44.07;;;;;;;7.90;100.00;99248.66;5069769;28;20213;-75
2023/12/06 07:38:57;;;;;;;119.00;43.70;;;;;;;7.89;100.00;99247.00;5070140;28;20196;-77
2023/12/06 07:41:24;;;;;;;120.90;44.27;;;;;;;7.85;100.00;99245.75;5083324;28;20195;-78
2023/12/06 07:43:51;;;;;;;141.60;45.30;;;;;;;7.90;100.00;99244.19;5073835;28;20672;-76
2023/12/06 07:46:18;;;;;;;134.53;47.10;;;;;;;7.85;100.00;99251.03;5070679;28;20264;-78
2023/12/06 07:48:44;;;;;;;124.37;44.00;;;;;;;7.89;100.00;99252.31;5067692;28;20184;-76
2023/12/06 07:51:12;;;;;;;120.73;44.77;;;;;;;7.92;100.00;99257.22;5067724;28;20576;-76
2023/12/06 07:53:40;;;;;;;133.67;46.10;;;;;;;7.93;100.00;99256.22;5071059;28;20235;-78
2023/12/06 07:56:07;;;;;;;132.23;45.97;;;;;;;7.89;100.00;99257.59;5071904;28;20306;-74
2023/12/06 07:58:34;;;;;;;126.00;45.30;;;;;;;7.86;100.00;99263.22;5073120;28;20199;-72
2023/12/06 08:01:01;;;;;;;128.63;43.90;;;;;;;7.70;100.00;99248.41;5070896;28;20237;-74
2023/12/06 08:03:30;;;;;;;118.67;42.87;;;;;;;7.75;100.00;99261.06;5069450;28;20206;-75
2023/12/06 08:05:59;;;;;;;123.60;43.13;;;;;;;7.70;100.00;99264.25;5070588;28;20368;-75
2023/12/06 08:08:26;;;;;;;124.50;45.23;;;;;;;7.68;100.00;99266.25;5070292;28;20198;-75
2023/12/06 08:10:54;;;;;;;125.43;43.37;;;;;;;7.71;100.00;99265.06;5071350;28;20191;-74
2023/12/06 08:13:20;;;;;;;119.13;43.40;;;;;;;7.74;100.00;99267.34;5071332;28;20226;-74
2023/12/06 08:15:48;;;;;;;125.87;42.90;;;;;;;7.70;100.00;99268.72;5071040;28;20230;-75
2023/12/06 08:18:15;;;;;;;130.57;42.70;;;;;;;7.64;100.00;99270.25;5070772;28;20302;-73
2023/12/06 08:20:42;;;;;;;119.03;42.60;;;;;;;7.68;100.00;99265.44;5069485;28;20651;-77
2023/12/06 08:23:09;;;;;;;112.73;41.60;;;;;;;7.74;100.00;99262.06;5069650;28;20197;-74
2023/12/06 08:25:36;;;;;;;128.27;41.97;;;;;;;7.79;100.00;99257.88;5072689;28;20236;-76
2023/12/06 08:28:04;;;;;;;134.20;44.40;;;;;;;7.78;100.00;99253.59;5069100;28;20195;-75
2023/12/06 08:30:31;;;;;;;128.43;41.07;;;;;;;7.74;100.00;99251.50;5087183;28;20270;-75
2023/12/06 08:32:58;;;;;;;114.77;43.10;;;;;;;7.71;100.00;99254.50;5089988;28;20195;-75
2023/12/06 08:35:25;;;;;;;130.77;47.97;;;;;;;7.69;100.00;99245.94;5070350;28;20219;-74
2023/12/06 08:37:51;;;;;;;128.70;43.97;;;;;;;7.69;100.00;99238.00;5070804;28;20196;-75
2023/12/06 08:40:18;;;;;;;120.43;44.93;;;;;;;7.65;100.00;99242.84;5070516;28;20233;-74
2023/12/06 08:42:45;;;;;;;123.67;42.37;;;;;;;7.70;100.00;99232.53;5070932;28;20633;-75
2023/12/06 08:45:13;;;;;;;128.27;42.47;;;;;;;7.76;100.00;99238.91;5073544;28;20266;-74
2023/12/06 08:47:42;;;;;;;114.60;42.87;;;;;;;7.84;100.00;99229.03;5070337;28;20204;-74
2023/12/06 08:50:10;;;;;;;111.63;40.33;;;;;;;7.90;100.00;99230.13;5073261;28;20187;-77
2023/12/06 08:52:36;;;;;;;112.87;40.33;;;;;;;7.92;100.00;99230.78;5073428;28;20275;-74
2023/12/06 08:55:04;;;;;;;100.03;37.17;;;;;;;7.95;100.00;99233.03;5070410;28;20676;-76
2023/12/06 08:57:31;;;;;;;102.67;38.33;;;;;;;7.99;100.00;99231.66;5074082;28;20255;-76
2023/12/06 08:59:58;;;;;;;106.93;36.63;;;;;;;7.95;100.00;99235.69;5073932;28;20733;-73
2023/12/06 09:02:26;;;;;;;102.77;39.13;;;;;;;7.93;100.00;99232.41;5072839;28;20360;-74
2023/12/06 09:04:55;;;;;;;96.07;37.87;;;;;;;7.90;100.00;99220.38;5073566;28;20242;-75
2023/12/06 09:07:21;;;;;;;96.50;37.20;;;;;;;7.98;100.00;99228.22;5074252;28;20227;-74
2023/12/06 09:09:48;;;;;;;103.10;37.50;;;;;;;8.05;100.00;99228.28;5077158;28;20634;-75
2023/12/06 09:12:15;;;;;;;94.63;36.83;;;;;;;7.98;100.00;99219.44;5075349;28;20200;-71
2023/12/06 09:14:41;;;;;;;92.53;37.37;;;;;;;7.91;100.00;99222.03;5072678;28;20614;-75
2023/12/06 09:17:08;;;;;;;103.17;38.60;;;;;;;7.86;100.00;99215.66;5075716;28;20272;-81
2023/12/06 09:19:37;;;;;;;104.80;38.03;;;;;;;7.92;100.00;99209.63;5073715;28;20188;-72
2023/12/06 09:22:05;;;;;;;93.27;36.60;;;;;;;7.92;100.00;99205.13;5071985;28;20291;-80
2023/12/06 09:24:32;;;;;;;94.73;35.03;;;;;;;7.89;100.00;99212.63;5073252;28;20207;-79
2023/12/06 09:26:58;;;;;;;94.57;37.57;;;;;;;7.86;100.00;99203.25;5077947;28;20198;-75
2023/12/06 09:29:25;;;;;;;101.73;38.80;;;;;;;7.70;100.00;99190.25;5077403;28;20211;-77
2023/12/06 09:31:52;;;;;;;107.20;46.20;;;;;;;7.67;100.00;99195.09;5073870;28;20261;-73
2023/12/06 09:34:19;;;;;;;116.13;46.83;;;;;;;7.61;100.00;99186.06;5069718;28;20678;-73
2023/12/06 09:36:47;;;;;;;104.33;43.73;;;;;;;7.55;100.00;99181.50;5078231;28;20227;-72
2023/12/06 09:39:15;;;;;;;81.63;35.80;;;;;;;7.50;100.00;99183.88;5093412;28;20237;-72
2023/12/06 09:41:44;;;;;;;95.67;36.00;;;;;;;7.53;100.00;99180.06;5075703;28;20623;-72
2023/12/06 09:44:16;;;;;;;85.30;35.63;;;;;;;7.56;100.00;99174.41;5073123;28;20191;-73
2023/12/06 09:46:44;;;;;;;89.23;35.07;;;;;;;7.56;100.00;99174.41;5072275;28;20283;-72
2023/12/06 09:49:11;;;;;;;92.67;37.33;;;;;;;7.51;100.00;99174.16;5073318;28;20196;-71
2023/12/06 09:51:38;;;;;;;77.47;35.90;;;;;;;7.44;100.00;99167.97;5072260;28;20906;-71
2023/12/06 09:54:06;;;;;;;84.87;35.97;;;;;;;7.40;100.00;99177.25;5072064;28;20195;-72
2023/12/06 09:56:35;;;;;;;74.53;32.83;;;;;;;7.42;100.00;99175.22;5072209;28;20215;-73
2023/12/06 09:59:02;;;;;;;74.27;30.70;;;;;;;7.31;100.00;99162.50;5081575;28;20207;-72
2023/12/06 10:01:28;;;;;;;72.17;33.40;;;;;;;7.32;100.00;99158.84;5072323;28;20370;-73
2023/12/06 10:03:55;;;;;;;75.93;30.70;;;;;;;7.34;100.00;99156.84;5071915;28;20195;-73
2023/12/06 10:06:22;;;;;;;80.77;34.57;;;;;;;7.38;100.00;99158.94;5071455;28;20257;-75
2023/12/06 10:08:55;;;;;;;78.37;36.70;;;;;;;7.43;100.00;99150.47;5073076;28;20203;-72
2023/12/06 10:11:25;;;;;;;89.03;37.73;;;;;;;7.50;100.00;99146.06;5070786;28;20750;-73
2023/12/06 10:13:51;;;;;;;74.47;34.17;;;;;;;7.53;100.00;99141.25;5071786;28;20207;-74
2023/12/06 10:16:19;;;;;;;72.90;35.10;;;;;;;7.62;100.00;99136.66;5071222;28;20223;-73
2023/12/06 10:18:48;;;;;;;77.83;34.33;;;;;;;7.68;100.00;99136.72;5072006;28;20287;-73
2023/12/06 10:21:15;;;;;;;66.07;26.90;;;;;;;7.57;100.00;99137.22;5071792;28;20253;-75
2023/12/06 10:23:42;;;;;;;70.03;29.60;;;;;;;7.44;100.00;99136.25;5071852;28;20199;-75
2023/12/06 10:26:14;;;;;;;72.13;28.50;;;;;;;7.53;100.00;99130.69;5071805;28;20279;-75
2023/12/06 10:28:43;;;;;;;71.53;29.67;;;;;;;7.63;100.00;99130.41;5072428;28;20184;-74
2023/12/06 10:31:09;;;;;;;65.43;28.07;;;;;;;7.60;100.00;99130.75;5071401;28;20231;-72
2023/12/06 10:33:39;;;;;;;60.00;30.03;;;;;;;7.51;100.00;99131.88;5069917;28;20200;-76
2023/12/06 10:36:09;;;;;;;63.37;29.07;;;;;;;7.39;100.00;99106.94;5077755;28;20366;-73
2023/12/06 10:38:37;;;;;;;73.83;34.17;;;;;;;7.86;100.00;99116.00;5069957;28;20249;-74
2023/12/06 10:41:05;;;;;;;72.63;30.63;;;;;;;8.36;100.00;99118.53;5072126;28;20754;-71
2023/12/06 10:43:33;;;;;;;78.00;34.63;;;;;;;8.90;100.00;99113.44;5077223;28;20200;-76
2023/12/06 10:46:01;;;;;;;79.67;32.73;;;;;;;8.72;100.00;99113.94;5072906;28;20204;-78
2023/12/06 10:48:30;;;;;;;84.10;34.67;;;;;;;8.63;100.00;99114.28;5065458;28;20192;-77
2023/12/06 10:50:59;;;;;;;86.73;33.50;;;;;;;8.51;100.00;99115.81;5057032;28;20268;-77
2023/12/06 10:53:27;;;;;;;86.40;33.87;;;;;;;8.49;100.00;99117.84;5069012;28;20192;-79
2023/12/06 10:55:54;;;;;;;83.53;29.37;;;;;;;8.44;100.00;99109.63;5071231;28;20200;-79
2023/12/06 10:58:24;;;;;;;69.93;28.73;;;;;;;8.40;100.00;99103.09;5070954;28;20624;-76
2023/12/06 11:00:51;;;;;;;63.37;25.93;;;;;;;8.33;100.00;99110.16;5071293;28;20257;-76
2023/12/06 11:03:20;;;;;;;51.83;25.80;;;;;;;8.12;100.00;99110.13;5070295;28;20199;-77
2023/12/06 11:05:51;;;;;;;63.07;27.70;;;;;;;7.94;100.00;99107.13;5071767;28;20228;-76
2023/12/06 11:08:34;;;;;;;56.23;28.50;;;;;;;7.97;100.00;99098.81;5072416;28;20306;-77
2023/12/06 11:11:17;;;;;;;51.67;25.43;;;;;;;8.06;100.00;99102.97;5071859;28;20184;-76
2023/12/06 11:13:53;;;;;;;49.07;24.53;;;;;;;8.13;100.00;99104.66;5072230;28;20201;-74
2023/12/06 11:16:36;;;;;;;56.60;28.17;;;;;;;8.08;100.00;99107.06;5072067;28;20204;-76